Allandale, Florida
Current Conditions -  °F | °C
As of 8:53 AM on Saturday 22 Nov 2014 (Local Time) from KDAB Reporting Station
Overcast Overcast  
Wind Chill: 72°   Ceiling: 4300
Heat Index: 72°   Visibility: 10mi
Dew Point: 62°   Wind: 9mph
Humidity: 71%   Direction: 100°E
Pressure: 30.3"   Gusts: 22mph
Location:  29.1486°N, 81.0301°W
Report Text: KDAB 221353Z 10008G19KT 10SM SCT030 BKN043 OVC075 22/17 A3030 RMK AO2 SLP258 T02220167
Loading
Personal Weather Stations






























Interactive Weather Map New forecast layout! Learn more

10-Day Weather Forecast

Advertisements
Track Severe Weather on mobile